Impacts METAR Board INFO
IDs:

KDTW - Detroit Metro/Wayne, MI, US

Updated at: 1444 UTC 18 Dec 2017
Potential Impact None Slight Moderate High
Time18/02Z 18/03Z 18/04Z 18/05Z 18/06Z 18/07Z 18/08Z 18/09Z 18/10Z 18/11Z 18/12Z 18/13Z 18/14Z
VIS5 5 5 6 7 7 7 7 7 6 7 7 2.5
CIG120 70 70 75 75 90 90 60 60 75 40 8 7
CoverOVCOVCOVCOVCBKNBKNOVCOVCOVCOVCOVCOVCOVC
FltCatMVFRMVFRMVFRVFRVFRVFRVFRVFRVFRVFRVFRIFRIFR
WXBRBRHZBR----------BR-----RA BR
WDir180180210210200210220210200210210210190
WSpd5 5 7 5 7 9 11 10 8 10 8 10 8
WGst-- -- -- -- -- -- -- -- -- -- -- -- --
Raw hourly METARs
KDTW 180153Z 18005KT 5SM BR OVC120 02/M01 A3005 RMK AO2 SLP184 T00171006 $
KDTW 180253Z 18005KT 5SM BR OVC070 01/M01 A3004 RMK AO2 SLP178 T00111011 58008 $
KDTW 180353Z 21007KT 5SM HZ BKN070 OVC120 02/M01 A3004 RMK AO2 SLP178 T00221006 $
KDTW 180453Z 21005KT 6SM BR SCT050 OVC075 01/M01 A3004 RMK AO2 SLP178 T00061011 400281039 $
KDTW 180553Z 20007KT 7SM FEW050 BKN075 BKN200 00/M02 A3000 RMK AO2 SLP167 T00001017 10022 20000 58010 $
KDTW 180653Z 21009KT 7SM FEW055 BKN090 BKN200 03/01 A2999 RMK AO2 SLP162 T00280011 $
KDTW 180753Z 22011KT 7SM SCT035 BKN090 OVC200 04/02 A2999 RMK AO2 SLP161 T00390017 $
KDTW 180853Z 21010KT 7SM SCT025 BKN060 OVC120 04/02 A2998 RMK AO2 SLP157 T00390017 57003 $
KDTW 180953Z COR 20008KT 7SM FEW025 OVC060 03/01 A2997 RMK AO2 SLP155 T00330011 $
KDTW 181053Z 21010KT 6SM BR FEW008 SCT025 OVC075 03/01 A2997 RMK AO2 SLP154 T00330011 $
KDTW 181153Z 21008KT 7SM SCT008 SCT025 OVC040 03/01 A2998 RMK AO2 SLP157 T00330011 10039 20000 53002 $
KDTW 181253Z 21010KT 7SM OVC008 04/02 A2997 RMK AO2 SLP154 T00390017 $
KDTW 181353Z 19008KT 2 1/2SM -RA BR OVC007 03/02 A2996 RMK AO2 RAB1257 SLP151 P0000 T00330017 $